createdAt,value
2023-03-28T00:03:12.638Z,23.3
2023-03-28T00:09:04.591Z,23.1
2023-03-28T00:14:25.580Z,23
2023-03-28T00:20:01.717Z,22.9
2023-03-28T00:25:37.146Z,22.8
2023-03-28T00:30:57.082Z,22.8
2023-03-28T00:36:49.056Z,22.7
2023-03-28T00:42:25.264Z,22.8
2023-03-28T00:48:34.242Z,23.1
2023-03-28T00:54:10.643Z,23.3
2023-03-28T00:59:46.199Z,23.1
2023-03-28T01:05:23.085Z,22.9
2023-03-28T01:10:59.484Z,22.8
2023-03-28T01:16:38.588Z,22.6
2023-03-28T01:21:58.882Z,22.6
2023-03-28T01:27:00.635Z,22.4
2023-03-28T01:32:36.664Z,22.4
2023-03-28T01:38:14.046Z,22.3
2023-03-28T01:43:50.229Z,22.4
2023-03-28T01:49:26.928Z,22.7
2023-03-28T01:55:02.865Z,23
2023-03-28T02:00:46.088Z,22.9
2023-03-28T02:06:22.258Z,22.6
2023-03-28T02:12:14.090Z,22.5
2023-03-28T02:18:05.337Z,22.3
2023-03-28T02:23:41.532Z,22.3
2023-03-28T02:29:33.670Z,22.2
2023-03-28T02:35:25.252Z,22.2
2023-03-28T02:41:16.722Z,22.1
2023-03-28T02:47:11.649Z,22.3
2023-03-28T02:52:41.268Z,22.6
2023-03-28T02:58:32.594Z,22.8
2023-03-28T03:04:10.235Z,22.6
2023-03-28T03:09:46.560Z,22.4
2023-03-28T03:15:22.969Z,22.3
2023-03-28T03:20:59.494Z,22.1
2023-03-28T03:26:22.057Z,22.1
2023-03-28T03:32:07.486Z,22
2023-03-28T03:37:47.080Z,22.1
2023-03-28T03:43:23.542Z,22.3
2023-03-28T03:48:49.793Z,22.8
2023-03-28T03:54:26.731Z,22.6
2023-03-28T03:59:47.739Z,22.3
2023-03-28T04:05:37.312Z,22.2
2023-03-28T04:11:13.529Z,22.1
2023-03-28T04:16:57.719Z,21.9
2023-03-28T04:23:02.001Z,21.9
2023-03-28T04:28:38.417Z,21.9
2023-03-28T04:34:15.428Z,22.1
2023-03-28T04:39:13.563Z,22.4
2023-03-28T04:44:34.794Z,22.5
2023-03-28T04:50:26.871Z,22.7
2023-03-28T04:56:18.872Z,22.8
2023-03-28T05:01:55.279Z,22.5
2023-03-28T05:07:48.410Z,22.3
2023-03-28T05:13:39.907Z,22.1
2023-03-28T05:19:35.632Z,21.9
2023-03-28T05:25:30.984Z,21.9
2023-03-28T05:31:21.279Z,21.8
2023-03-28T05:37:13.675Z,21.9
2023-03-28T05:43:05.388Z,22.5
2023-03-28T05:48:56.302Z,22.6
2023-03-28T05:54:50.188Z,22.4
2023-03-28T06:00:28.225Z,22.1
2023-03-28T06:06:21.454Z,22.1
2023-03-28T06:12:26.057Z,21.9
2023-03-28T06:18:26.544Z,21.8
2023-03-28T06:24:19.578Z,21.7
2023-03-28T06:30:11.310Z,21.9
2023-03-28T06:36:04.374Z,22.4
2023-03-28T06:41:56.391Z,22.6
2023-03-28T06:47:48.174Z,22.3
2023-03-28T06:53:09.461Z,22.1
2023-03-28T06:59:00.411Z,22
2023-03-28T07:04:56.164Z,21.8
2023-03-28T07:10:32.136Z,21.8
2023-03-28T07:16:25.382Z,21.7
2023-03-28T07:22:25.976Z,21.8
2023-03-28T07:28:35.747Z,22.2
2023-03-28T07:34:59.548Z,22.6
2023-03-28T07:40:35.415Z,22.3
2023-03-28T07:45:56.012Z,22.1
2023-03-28T07:51:47.879Z,21.9
2023-03-28T07:57:49.772Z,21.8
2023-03-28T08:03:42.107Z,21.8
2023-03-28T08:09:48.300Z,21.6
2023-03-28T08:15:40.003Z,21.8
2023-03-28T08:21:44.148Z,22.2
2023-03-28T08:27:30.150Z,22.6
2023-03-28T08:33:21.886Z,22.3
2023-03-28T08:39:16.861Z,22.1
2023-03-28T08:44:53.082Z,21.9
2023-03-28T08:50:46.386Z,21.8
2023-03-28T08:56:41.032Z,21.7
2023-03-28T09:02:32.077Z,21.6
2023-03-28T09:08:42.825Z,21.7
2023-03-28T09:14:19.352Z,22.1
2023-03-28T09:20:21.021Z,22.4
2023-03-28T09:26:25.927Z,22.7
2023-03-28T09:32:03.577Z,22.5
2023-03-28T09:38:07.306Z,22.2
2023-03-28T09:43:59.637Z,22
2023-03-28T09:50:10.014Z,21.8
2023-03-28T09:55:54.755Z,21.8
2023-03-28T10:01:50.405Z,21.7
2023-03-28T10:07:42.344Z,21.8
2023-03-28T10:13:33.028Z,22
2023-03-28T10:19:24.640Z,22.6
2023-03-28T10:25:15.594Z,22.4
2023-03-28T10:30:51.395Z,22.1
2023-03-28T10:36:45.049Z,21.9
2023-03-28T10:42:37.373Z,21.9
2023-03-28T10:48:28.883Z,21.9
2023-03-28T10:54:19.951Z,22.3
2023-03-28T11:00:12.476Z,22.5
2023-03-28T11:06:22.267Z,22.3
2023-03-28T11:12:23.252Z,22.3
2023-03-28T11:18:07.813Z,22.3
2023-03-28T11:24:11.588Z,22.2
2023-03-28T11:30:31.302Z,22
2023-03-28T11:36:07.744Z,22.6
2023-03-28T11:42:00.899Z,22.5
2023-03-28T11:48:06.246Z,22.3
2023-03-28T11:53:58.703Z,22.2
2023-03-28T11:59:50.197Z,22.1
2023-03-28T12:05:53.475Z,22
2023-03-28T12:12:00.735Z,22.3
2023-03-28T12:18:04.593Z,22.5
2023-03-28T12:23:57.427Z,22.3
2023-03-28T12:29:33.589Z,22.2
2023-03-28T12:35:25.833Z,22.2
2023-03-28T12:41:02.308Z,22.1
2023-03-28T12:46:54.753Z,22.1
2023-03-28T12:52:46.849Z,22.5
2023-03-28T12:58:40.701Z,22.4
2023-03-28T13:04:32.755Z,22.3
2023-03-28T13:10:24.929Z,22.3
2023-03-28T13:16:16.985Z,22.2
2023-03-28T13:21:54.121Z,22.1
2023-03-28T13:27:31.511Z,22.1
2023-03-28T13:33:22.996Z,22.6
2023-03-28T13:39:02.980Z,22.4
2023-03-28T13:44:54.378Z,22.3
2023-03-28T13:50:26.043Z,22.3
2023-03-28T13:56:30.888Z,22.3
2023-03-28T14:02:22.741Z,22.2
2023-03-28T14:08:16.024Z,22.3
2023-03-28T14:14:09.453Z,22.7
2023-03-28T14:20:01.683Z,22.5
2023-03-28T14:26:02.057Z,22.4
2023-03-28T14:31:42.114Z,22.3
2023-03-28T14:37:43.607Z,22.3
2023-03-28T14:43:34.595Z,22.3
2023-03-28T14:49:26.674Z,22.2
2023-03-28T14:55:20.210Z,22.1
2023-03-28T15:01:11.541Z,22.1
2023-03-28T15:07:06.397Z,22
2023-03-28T15:12:42.704Z,21.9
2023-03-28T15:18:36.758Z,22.2
2023-03-28T15:24:28.380Z,22.7
2023-03-28T15:30:22.269Z,23.6
2023-03-28T15:36:01.031Z,24.3
2023-03-28T15:41:52.468Z,25
2023-03-28T15:47:43.569Z,25.5
2023-03-28T15:53:38.617Z,25.8
2023-03-28T15:59:45.687Z,26
2023-03-28T16:05:21.562Z,26.3
2023-03-28T16:11:32.384Z,26.5
2023-03-28T16:17:09.248Z,26.7
2023-03-28T16:23:00.308Z,26.8
2023-03-28T16:28:37.043Z,26.9
2023-03-28T16:34:14.670Z,27
2023-03-28T16:40:06.404Z,27.1
2023-03-28T16:45:57.158Z,27.1
2023-03-28T16:51:48.873Z,27.3
2023-03-28T16:57:09.365Z,27.7
2023-03-28T17:03:02.012Z,28.1
2023-03-28T17:08:56.944Z,28.5
2023-03-28T17:14:48.638Z,28.8
2023-03-28T17:20:09.724Z,29.1
2023-03-28T17:26:17.888Z,29.3
2023-03-28T17:32:10.803Z,29.5
2023-03-28T17:38:03.613Z,29.7
2023-03-28T17:43:55.816Z,29.8
2023-03-28T17:49:50.862Z,30
2023-03-28T17:55:28.173Z,30
2023-03-28T18:01:05.373Z,30.1
2023-03-28T18:06:58.016Z,30.3
2023-03-28T18:12:52.751Z,30.4
2023-03-28T18:18:29.914Z,30.4
2023-03-28T18:24:05.325Z,30.3
2023-03-28T18:29:44.237Z,30.3
2023-03-28T18:35:40.949Z,30.4
2023-03-28T18:41:04.671Z,30.4
2023-03-28T18:46:57.626Z,30.4
2023-03-28T18:52:34.565Z,30.3
2023-03-28T18:58:12.045Z,30.3
2023-03-28T19:03:50.756Z,30.3
2023-03-28T19:09:13.101Z,30.3
2023-03-28T19:14:50.117Z,30.3
2023-03-28T19:20:14.800Z,30.2
2023-03-28T19:25:52.681Z,30.1
2023-03-28T19:31:46.930Z,30
2023-03-28T19:37:40.590Z,29.9
2023-03-28T19:43:20.409Z,29.8
2023-03-28T19:49:01.487Z,29.6
2023-03-28T19:54:54.026Z,29.4
2023-03-28T20:00:46.996Z,29.3
2023-03-28T20:06:08.989Z,29.1
2023-03-28T20:11:48.070Z,28.9
2023-03-28T20:17:26.141Z,28.7
2023-03-28T20:23:17.892Z,28.6
2023-03-28T20:28:54.156Z,28.3
2023-03-28T20:34:46.046Z,28.2
2023-03-28T20:40:38.135Z,28
2023-03-28T20:46:15.810Z,27.4
2023-03-28T20:52:11.395Z,26.8
2023-03-28T20:58:03.731Z,26.7
2023-03-28T21:03:55.686Z,26.3
2023-03-28T21:09:47.262Z,26.3
2023-03-28T21:15:38.778Z,26
2023-03-28T21:21:14.723Z,26
2023-03-28T21:26:50.805Z,25.8
2023-03-28T21:32:11.783Z,25.6
2023-03-28T21:37:49.103Z,25.6
2023-03-28T21:43:25.160Z,25.4
2023-03-28T21:48:14.932Z,25.5
2023-03-28T21:54:06.667Z,25.8
2023-03-28T21:59:59.859Z,25.8
2023-03-28T22:05:46.305Z,25.4
2023-03-28T22:10:36.323Z,25.2
2023-03-28T22:16:13.181Z,25
2023-03-28T22:21:33.707Z,24.8
2023-03-28T22:26:38.136Z,24.6
2023-03-28T22:32:14.816Z,24.5
2023-03-28T22:37:50.127Z,24.4
2023-03-28T22:43:25.874Z,24.3
2023-03-28T22:48:47.416Z,24.3
2023-03-28T22:54:23.886Z,24.7
2023-03-28T22:59:45.425Z,25.1
2023-03-28T23:05:37.509Z,24.8
2023-03-28T23:11:13.482Z,24.4
2023-03-28T23:17:05.282Z,24.2
2023-03-28T23:22:42.499Z,24.1
2023-03-28T23:28:36.220Z,23.8
2023-03-28T23:34:27.319Z,23.8
2023-03-28T23:40:19.581Z,23.7
2023-03-28T23:45:55.401Z,24.1
2023-03-28T23:51:16.548Z,24.6
2023-03-28T23:56:37.242Z,24.4
